Time;durP1;ratioP1;P1;durP2;ratioP2;P2;SDS_P1;SDS_P2;PMS_P1;PMS_P2;Temp;Humidity;BMP_temperature;BMP_pressure;BME280_temperature;BME280_humidity;BME280_pressure;Samples;Min_cycle;Max_cycle;Signal;HPM_P1;HPM_P2
2022/08/17 00:02:20;;;;;;;14.55;12.25;;;22.40;99.90;;;;;;6163030;28;20349;-65
2022/08/17 00:05:34;;;;;;;21.02;11.80;;;22.40;99.90;;;;;;6163799;28;20275;-65
2022/08/17 00:08:43;;;;;;;16.30;12.02;;;22.40;99.90;;;;;;6169948;28;20294;-66
2022/08/17 00:11:49;;;;;;;18.30;11.50;;;22.40;99.90;;;;;;6187778;28;20447;-65
2022/08/17 00:15:17;;;;;;;18.52;11.90;;;22.40;99.90;;;;;;6187042;28;20282;-65
2022/08/17 00:18:22;;;;;;;18.40;11.93;;;22.40;99.90;;;;;;6187097;28;20301;-65
2022/08/17 00:21:48;;;;;;;14.13;11.75;;;22.40;99.90;;;;;;6187424;28;20274;-65
2022/08/17 00:25:19;;;;;;;18.35;12.05;;;22.40;99.90;;;;;;6186663;28;20286;-65
2022/08/17 00:28:25;;;;;;;13.73;11.80;;;22.30;99.90;;;;;;6187131;28;20301;-66
2022/08/17 00:31:37;;;;;;;20.58;12.32;;;22.30;99.90;;;;;;6186287;28;20289;-65
2022/08/17 00:34:42;;;;;;;18.15;12.27;;;22.30;99.90;;;;;;6186485;28;20313;-65
2022/08/17 00:37:47;;;;;;;17.15;11.98;;;22.20;99.90;;;;;;6187112;28;20321;-66
2022/08/17 00:40:55;;;;;;;22.35;12.50;;;22.30;99.90;;;;;;6187419;28;20278;-66
2022/08/17 00:44:05;;;;;;;19.33;13.25;;;22.30;99.90;;;;;;6186524;28;20578;-65
2022/08/17 00:47:13;;;;;;;15.93;12.65;;;22.20;99.90;;;;;;6186720;28;20278;-65
2022/08/17 00:50:20;;;;;;;15.95;12.05;;;22.20;99.90;;;;;;6187321;28;20270;-66
2022/08/17 00:53:26;;;;;;;16.38;13.20;;;22.30;99.90;;;;;;6186805;28;20321;-66
2022/08/17 00:56:36;;;;;;;17.02;13.07;;;22.20;99.90;;;;;;6186794;28;20278;-66
2022/08/17 00:59:47;;;;;;;21.63;13.57;;;22.20;99.90;;;;;;6186232;28;20294;-66
2022/08/17 01:03:20;;;;;;;17.52;11.95;;;22.20;99.90;;;;;;6188871;28;20298;-67
2022/08/17 01:06:27;;;;;;;18.08;13.48;;;22.10;99.90;;;;;;6190997;28;20269;-66
2022/08/17 01:09:33;;;;;;;20.00;13.45;;;22.00;99.90;;;;;;6176938;28;20298;-66
2022/08/17 01:12:38;;;;;;;17.05;12.32;;;22.00;99.90;;;;;;6166691;28;20298;-65
2022/08/17 01:15:48;;;;;;;19.45;12.88;;;22.00;99.90;;;;;;6166723;28;20275;-65
2022/08/17 01:19:05;;;;;;;23.70;12.88;;;22.00;99.90;;;;;;6166339;28;20298;-66
2022/08/17 01:22:23;;;;;;;16.35;12.73;;;22.00;99.90;;;;;;6166606;28;20279;-67
2022/08/17 01:25:29;;;;;;;20.13;12.93;;;22.00;99.90;;;;;;6167013;29;20270;-67
2022/08/17 01:28:35;;;;;;;20.52;13.85;;;22.00;99.90;;;;;;6166431;28;20305;-66
2022/08/17 01:32:04;;;;;;;15.65;12.77;;;22.00;99.90;;;;;;6166260;28;20279;-67
2022/08/17 01:35:10;;;;;;;18.58;13.68;;;22.00;99.90;;;;;;6166096;28;20278;-67
2022/08/17 01:38:18;;;;;;;21.60;13.73;;;22.00;99.90;;;;;;6166071;28;20298;-66
2022/08/17 01:41:31;;;;;;;29.63;17.60;;;22.00;99.90;;;;;;6166005;28;20456;-66
2022/08/17 01:44:36;;;;;;;28.00;15.18;;;21.90;99.90;;;;;;6164330;28;20503;-66
2022/08/17 01:47:42;;;;;;;27.55;14.35;;;21.90;99.90;;;;;;6165583;28;20294;-66
2022/08/17 01:50:51;;;;;;;18.48;14.00;;;21.90;99.90;;;;;;6166314;28;20279;-66
2022/08/17 01:54:03;;;;;;;15.93;13.68;;;21.90;99.90;;;;;;6165881;28;20310;-66
2022/08/17 01:57:10;;;;;;;25.08;13.38;;;21.90;99.90;;;;;;6165851;28;20270;-66
2022/08/17 02:00:17;;;;;;;18.23;13.02;;;21.90;99.90;;;;;;6164642;29;20434;-65
2022/08/17 02:03:24;;;;;;;19.77;14.20;;;21.90;99.90;;;;;;6165346;28;20323;-65
2022/08/17 02:06:30;;;;;;;16.77;13.85;;;21.90;99.90;;;;;;6166015;28;20336;-65
2022/08/17 02:09:51;;;;;;;20.88;14.07;;;21.90;99.90;;;;;;6181231;28;20302;-66
2022/08/17 02:12:57;;;;;;;15.88;13.32;;;21.90;99.90;;;;;;6188768;28;20301;-66
2022/08/17 02:16:02;;;;;;;17.58;14.07;;;21.80;99.90;;;;;;6189900;28;20281;-66
2022/08/17 02:19:10;;;;;;;17.63;13.23;;;21.80;99.90;;;;;;6189054;28;20297;-66
2022/08/17 02:22:17;;;;;;;21.83;14.38;;;21.90;99.90;;;;;;6188781;28;20273;-66
2022/08/17 02:25:23;;;;;;;22.65;13.65;;;21.80;99.90;;;;;;6189642;28;20294;-65
2022/08/17 02:28:29;;;;;;;19.60;13.52;;;21.90;99.90;;;;;;6189061;28;20297;-65
2022/08/17 02:31:35;;;;;;;20.30;14.05;;;21.80;99.90;;;;;;6189377;28;20278;-65
2022/08/17 02:34:40;;;;;;;18.42;14.65;;;21.80;99.90;;;;;;6188958;28;20305;-66
2022/08/17 02:37:45;;;;;;;16.63;14.93;;;21.80;99.90;;;;;;6188387;28;20333;-65
2022/08/17 02:40:57;;;;;;;22.95;15.77;;;21.80;99.90;;;;;;6188750;28;20278;-65
2022/08/17 02:44:04;;;;;;;21.77;14.95;;;21.70;99.90;;;;;;6188449;28;20305;-66
2022/08/17 02:47:12;;;;;;;19.35;15.27;;;21.60;99.90;;;;;;6188282;28;20274;-66
2022/08/17 02:50:20;;;;;;;20.15;15.30;;;21.70;99.90;;;;;;6188671;28;20273;-66
2022/08/17 02:53:26;;;;;;;17.65;15.18;;;21.70;99.90;;;;;;6188609;28;20314;-66
2022/08/17 02:56:40;;;;;;;22.65;15.90;;;21.70;99.90;;;;;;6188868;28;20578;-67
2022/08/17 02:59:46;;;;;;;21.05;15.13;;;21.60;99.90;;;;;;6188123;28;20317;-66
2022/08/17 03:02:53;;;;;;;23.00;15.73;;;21.60;99.90;;;;;;6184011;28;20447;-67
2022/08/17 03:05:58;;;;;;;25.25;16.35;;;21.70;99.90;;;;;;6171288;28;20289;-65
2022/08/17 03:09:04;;;;;;;21.98;17.60;;;21.60;99.90;;;;;;6164699;28;20589;-65
2022/08/17 03:12:13;;;;;;;17.73;15.32;;;21.60;99.90;;;;;;6178416;28;20266;-67
2022/08/17 03:15:23;;;;;;;34.72;16.25;;;21.70;99.90;;;;;;6188207;28;20305;-65
2022/08/17 03:18:28;;;;;;;25.35;16.33;;;21.80;99.90;;;;;;6188049;28;20309;-66
2022/08/17 03:21:33;;;;;;;25.10;17.30;;;21.80;99.90;;;;;;6167588;28;20279;-66
2022/08/17 03:24:38;;;;;;;21.40;18.02;;;21.80;99.90;;;;;;6163141;28;20597;-66
2022/08/17 03:27:45;;;;;;;30.08;18.33;;;21.70;99.90;;;;;;6163813;28;20274;-66
2022/08/17 03:30:55;;;;;;;23.25;18.30;;;21.70;99.90;;;;;;6164229;28;20427;-66
2022/08/17 03:34:00;;;;;;;29.48;20.63;;;21.70;99.90;;;;;;6163824;28;20338;-66
2022/08/17 03:37:06;;;;;;;27.98;19.27;;;21.50;99.90;;;;;;6172419;28;20557;-66
2022/08/17 03:40:13;;;;;;;30.70;19.10;;;21.60;99.90;;;;;;6187344;28;20298;-67
2022/08/17 03:43:40;;;;;;;23.48;18.73;;;21.70;99.90;;;;;;6187434;28;20606;-66
2022/08/17 03:57:12;;;;;;;27.20;20.13;;;21.80;99.90;;;;;;6187746;28;20277;-67
2022/08/17 04:00:19;;;;;;;28.73;20.42;;;21.80;99.90;;;;;;6186959;28;20446;-65
2022/08/17 04:03:24;;;;;;;30.50;21.27;;;21.70;99.90;;;;;;6186899;28;20294;-65
2022/08/17 04:06:29;;;;;;;33.00;21.02;;;21.80;99.90;;;;;;6187274;28;20481;-65
2022/08/17 04:09:35;;;;;;;26.48;20.98;;;21.80;99.90;;;;;;6187069;28;20302;-66
2022/08/17 04:12:47;;;;;;;30.15;20.05;;;21.80;99.90;;;;;;6167588;28;20270;-66
2022/08/17 04:15:53;;;;;;;31.08;21.15;;;21.90;99.90;;;;;;6162902;28;20282;-66
2022/08/17 04:18:59;;;;;;;29.08;20.40;;;21.90;99.90;;;;;;6162920;28;20318;-66
2022/08/17 04:22:05;;;;;;;27.02;21.02;;;21.90;99.90;;;;;;6163505;28;20274;-65
2022/08/17 04:25:18;;;;;;;31.88;22.00;;;21.90;99.90;;;;;;6163089;28;20598;-65
2022/08/17 04:28:33;;;;;;;30.35;22.80;;;21.80;99.90;;;;;;6162707;28;20290;-65
2022/08/17 04:31:40;;;;;;;28.63;21.38;;;21.80;99.90;;;;;;6163475;28;20387;-66
2022/08/17 04:34:45;;;;;;;29.52;21.48;;;21.70;99.90;;;;;;6162597;28;20298;-66
2022/08/17 04:37:51;;;;;;;31.23;21.30;;;21.80;99.90;;;;;;6164121;28;20278;-66
2022/08/17 04:44:19;;;;;;;35.10;21.58;;;21.70;99.90;;;;;;6167461;28;20298;-66
2022/08/17 04:47:43;;;;;;;26.02;21.52;;;21.70;99.90;;;;;;6167528;28;20298;-67
2022/08/17 04:50:50;;;;;;;30.40;20.55;;;21.90;99.90;;;;;;6166869;28;20278;-65
2022/08/17 04:53:59;;;;;;;27.55;20.17;;;21.90;99.90;;;;;;6166750;28;20297;-65
2022/08/17 04:57:04;;;;;;;30.10;21.30;;;22.00;99.90;;;;;;6167326;28;20279;-65
2022/08/17 05:00:12;;;;;;;35.10;21.40;;;22.00;99.90;;;;;;6166354;28;20306;-65
2022/08/17 05:03:18;;;;;;;31.70;21.60;;;22.10;99.90;;;;;;6166591;28;20554;-65
2022/08/17 05:06:24;;;;;;;28.45;21.25;;;22.00;99.90;;;;;;6167057;29;20298;-65
2022/08/17 05:09:30;;;;;;;30.27;21.55;;;22.00;99.90;;;;;;6166722;28;20299;-65
2022/08/17 05:12:35;;;;;;;23.55;20.65;;;22.00;99.90;;;;;;6186454;28;20266;-65
2022/08/17 05:15:41;;;;;;;29.33;20.23;;;22.10;99.90;;;;;;6190805;28;20294;-66
2022/08/17 05:18:53;;;;;;;26.85;20.33;;;22.00;99.90;;;;;;6190626;28;20495;-65
2022/08/17 05:21:58;;;;;;;30.25;21.17;;;22.10;99.90;;;;;;6190898;28;20286;-65
2022/08/17 05:25:03;;;;;;;29.23;21.58;;;22.00;99.90;;;;;;6190644;28;20334;-66
2022/08/17 05:28:10;;;;;;;28.80;21.15;;;22.10;99.90;;;;;;6190210;28;20577;-66
2022/08/17 05:31:16;;;;;;;30.17;21.58;;;22.10;99.90;;;;;;6190420;28;20465;-66
2022/08/17 05:34:22;;;;;;;25.27;21.05;;;22.20;99.90;;;;;;6190057;28;20302;-66
2022/08/17 05:37:28;;;;;;;31.23;21.77;;;22.20;99.90;;;;;;6190710;28;20277;-66
2022/08/17 05:40:33;;;;;;;26.17;20.60;;;22.30;99.90;;;;;;6189974;28;20318;-66
2022/08/17 05:43:40;;;;;;;32.05;21.33;;;22.30;99.90;;;;;;6189944;28;20293;-65
2022/08/17 05:46:50;;;;;;;27.73;21.05;;;22.30;99.90;;;;;;6190039;28;20297;-66
2022/08/17 05:49:57;;;;;;;26.58;20.08;;;22.30;99.90;;;;;;6189268;28;20601;-66
2022/08/17 05:53:09;;;;;;;26.48;20.35;;;22.30;99.90;;;;;;6189481;28;20304;-66
2022/08/17 05:56:25;;;;;;;28.73;20.92;;;22.30;99.90;;;;;;6189863;28;20274;-66
2022/08/17 05:59:44;;;;;;;24.33;19.25;;;22.30;99.90;;;;;;6189167;28;20298;-67
2022/08/17 06:03:15;;;;;;;27.05;19.98;;;22.30;99.90;;;;;;6189260;28;20274;-66
2022/08/17 06:06:39;;;;;;;26.00;19.75;;;22.40;99.90;;;;;;6189615;28;20482;-66
2022/08/17 06:09:52;;;;;;;27.70;19.67;;;22.40;99.90;;;;;;6189036;28;20294;-65
2022/08/17 06:13:09;;;;;;;26.88;19.48;;;22.40;99.90;;;;;;6166965;28;20318;-66
2022/08/17 06:16:17;;;;;;;26.73;20.60;;;22.40;99.90;;;;;;6165438;28;20275;-67
2022/08/17 06:19:40;;;;;;;34.15;19.52;;;22.30;99.90;;;;;;6164866;28;20299;-66
2022/08/17 06:22:52;;;;;;;29.77;19.48;;;22.40;99.90;;;;;;6164679;28;20274;-67
2022/08/17 06:26:03;;;;;;;34.45;19.98;;;22.50;99.90;;;;;;6165571;28;20274;-66
2022/08/17 06:29:27;;;;;;;29.50;19.77;;;22.50;99.90;;;;;;6164921;28;20302;-66
2022/08/17 06:32:34;;;;;;;24.05;19.67;;;22.60;99.90;;;;;;6165314;29;20274;-66
2022/08/17 06:35:44;;;;;;;23.67;19.45;;;22.70;99.90;;;;;;6164773;28;20302;-66
2022/08/17 06:38:59;;;;;;;26.42;19.63;;;22.70;99.90;;;;;;6164484;28;20302;-67
2022/08/17 06:42:14;;;;;;;31.92;19.67;;;22.60;99.90;;;;;;6165302;28;20275;-66
2022/08/17 06:45:48;;;;;;;24.70;17.60;;;22.70;99.90;;;;;;6164647;28;20601;-66
2022/08/17 06:49:10;;;;;;;34.17;17.90;;;22.80;99.90;;;;;;6164325;28;20589;-66
2022/08/17 06:52:22;;;;;;;24.40;18.17;;;22.80;99.90;;;;;;6164983;28;20271;-67
2022/08/17 06:55:56;;;;;;;23.60;17.17;;;22.90;99.90;;;;;;6163976;29;20274;-67
2022/08/17 06:59:02;;;;;;;26.60;18.45;;;23.00;99.90;;;;;;6163859;28;20306;-67
2022/08/17 07:02:10;;;;;;;26.45;17.77;;;23.00;99.90;;;;;;6163409;28;20487;-66
2022/08/17 07:05:17;;;;;;;21.55;17.90;;;23.00;99.90;;;;;;6164039;28;20302;-67
2022/08/17 07:08:32;;;;;;;21.05;16.83;;;23.00;99.90;;;;;;6163504;28;20318;-66
2022/08/17 07:11:49;;;;;;;20.95;17.30;;;23.10;99.90;;;;;;6175989;28;20318;-66
2022/08/17 07:15:04;;;;;;;26.52;18.20;;;23.20;99.90;;;;;;6187985;28;20297;-66
2022/08/17 07:18:14;;;;;;;24.60;18.15;;;23.20;99.90;;;;;;6187938;28;20297;-66
2022/08/17 07:21:37;;;;;;;21.33;17.08;;;23.30;99.90;;;;;;6187772;28;20277;-66
2022/08/17 07:24:51;;;;;;;20.35;16.45;;;23.40;99.90;;;;;;6187564;28;20550;-66
2022/08/17 07:28:01;;;;;;;25.77;17.33;;;23.60;99.90;;;;;;6187641;28;20301;-66
2022/08/17 07:31:13;;;;;;;20.73;16.50;;;23.70;99.90;;;;;;6188193;28;20278;-66
2022/08/17 07:34:18;;;;;;;18.45;16.48;;;23.80;99.90;;;;;;6187442;28;20456;-66
2022/08/17 07:37:23;;;;;;;18.80;16.40;;;23.90;99.90;;;;;;6188162;28;20436;-66
2022/08/17 07:40:33;;;;;;;22.23;17.45;;;23.90;99.90;;;;;;6187365;28;20297;-66
2022/08/17 07:43:48;;;;;;;24.23;15.98;;;23.90;99.90;;;;;;6187250;28;20311;-67
2022/08/17 07:50:26;;;;;;;20.27;14.75;;;24.00;99.90;;;;;;6187091;28;20322;-67
2022/08/17 07:53:31;;;;;;;17.58;15.25;;;24.10;99.90;;;;;;6186872;28;20314;-66
2022/08/17 07:56:42;;;;;;;20.45;15.38;;;24.20;99.90;;;;;;6187726;28;20273;-66
2022/08/17 08:00:15;;;;;;;21.17;15.27;;;24.30;99.90;;;;;;6186383;28;20552;-66
2022/08/17 08:03:25;;;;;;;19.92;14.82;;;24.30;99.90;;;;;;6186872;28;20293;-66
2022/08/17 08:06:36;;;;;;;21.30;15.05;;;24.40;99.90;;;;;;6187715;28;20557;-66
2022/08/17 08:09:45;;;;;;;20.92;13.98;;;24.40;99.90;;;;;;6186840;28;20305;-66
2022/08/17 08:13:06;;;;;;;18.75;14.05;;;24.50;99.90;;;;;;6168862;28;20271;-66
2022/08/17 08:16:25;;;;;;;15.50;13.90;;;24.60;99.90;;;;;;6168149;28;20270;-66
2022/08/17 08:19:31;;;;;;;17.50;13.85;;;24.60;99.90;;;;;;6167475;28;20302;-66
2022/08/17 08:22:46;;;;;;;14.02;12.55;;;24.70;99.90;;;;;;6168239;28;20269;-65
2022/08/17 08:26:03;;;;;;;16.95;13.45;;;24.70;99.90;;;;;;6166834;28;20574;-66
2022/08/17 08:29:21;;;;;;;20.13;13.10;;;24.80;99.90;;;;;;6167103;28;20307;-66
2022/08/17 08:32:50;;;;;;;15.60;13.38;;;24.80;99.90;;;;;;6167631;28;20274;-66
2022/08/17 08:36:02;;;;;;;15.95;13.13;;;24.90;99.90;;;;;;6166934;28;20451;-66
2022/08/17 08:39:15;;;;;;;16.65;12.32;;;25.00;99.90;;;;;;6167416;28;20492;-66
2022/08/17 08:42:28;;;;;;;15.52;12.32;;;25.00;99.90;;;;;;6167586;29;20271;-66
2022/08/17 08:45:44;;;;;;;16.40;12.68;;;24.90;99.90;;;;;;6167055;28;20319;-67
2022/08/17 08:49:29;;;;;;;17.20;12.52;;;25.00;99.90;;;;;;6166817;28;20303;-66
2022/08/17 08:53:22;;;;;;;15.07;12.15;;;25.00;99.90;;;;;;6166268;28;20270;-67
2022/08/17 08:56:34;;;;;;;13.75;12.35;;;25.00;99.90;;;;;;6163827;28;20274;-65
2022/08/17 08:59:52;;;;;;;17.73;13.10;;;25.00;99.90;;;;;;6166218;28;20298;-66
2022/08/17 09:03:37;;;;;;;16.60;12.65;;;25.10;99.90;;;;;;6166345;28;20275;-66
2022/08/17 09:07:09;;;;;;;40.97;15.40;;;25.20;99.90;;;;;;6165739;29;20277;-66
2022/08/17 09:10:25;;;;;;;16.98;12.70;;;25.30;99.90;;;;;;6167225;28;20302;-66
2022/08/17 09:13:42;;;;;;;14.15;12.23;;;25.40;99.90;;;;;;6190368;28;20558;-65
2022/08/17 09:16:56;;;;;;;16.20;12.32;;;25.40;99.90;;;;;;6190588;28;20270;-67
2022/08/17 09:20:05;;;;;;;15.05;11.43;;;25.40;99.90;;;;;;6190595;28;20301;-67
2022/08/17 09:23:19;;;;;;;30.73;17.90;;;25.40;99.90;;;;;;6189425;28;20301;-66
2022/08/17 09:26:31;;;;;;;19.23;14.13;;;25.50;99.90;;;;;;6190664;28;20278;-66
2022/08/17 09:29:42;;;;;;;78.18;27.17;;;25.50;99.90;;;;;;6189811;28;20393;-66
2022/08/17 09:32:57;;;;;;;21.42;13.70;;;25.60;99.90;;;;;;6189944;28;20278;-67
2022/08/17 09:36:08;;;;;;;13.43;11.75;;;25.60;99.90;;;;;;6190459;28;20433;-65
2022/08/17 09:39:22;;;;;;;13.20;11.55;;;25.60;99.90;;;;;;6189892;28;20601;-66
2022/08/17 09:42:35;;;;;;;12.43;10.32;;;25.70;99.90;;;;;;6190250;28;20274;-65
2022/08/17 09:45:48;;;;;;;15.07;10.50;;;25.80;99.90;;;;;;6189892;28;20298;-66
2022/08/17 09:49:01;;;;;;;12.07;10.40;;;25.90;99.90;;;;;;6189712;28;20581;-66
2022/08/17 09:52:11;;;;;;;13.52;10.70;;;26.00;99.90;;;;;;6190112;28;20278;-67
2022/08/17 09:55:18;;;;;;;15.77;10.45;;;26.10;99.90;;;;;;6189620;28;20302;-66
2022/08/17 09:58:30;;;;;;;11.75;10.38;;;26.10;99.90;;;;;;6189590;28;20297;-66
2022/08/17 10:01:38;;;;;;;12.25;10.98;;;26.20;99.90;;;;;;6189015;28;20302;-65
2022/08/17 10:04:51;;;;;;;11.35;10.35;;;26.30;99.90;;;;;;6189073;28;20597;-66
2022/08/17 10:08:07;;;;;;;15.90;11.20;;;26.40;99.90;;;;;;6188980;28;20286;-66
2022/08/17 10:12:14;;;;;;;11.85;10.63;;;26.40;99.90;;;;;;6180826;28;20365;-66
2022/08/17 10:15:17;;;;;;;12.60;10.60;;;26.40;99.90;;;;;;6164818;28;20299;-66
2022/08/17 10:18:42;;;;;;;11.32;10.23;;;26.40;99.90;;;;;;6164851;28;20593;-67
2022/08/17 10:29:06;;;;;;;11.05;10.07;;;26.30;99.90;;;;;;6164466;28;20299;-66
2022/08/17 10:32:31;;;;;;;10.52;9.50;;;26.30;99.90;;;;;;6164370;28;20294;-66
2022/08/17 10:35:44;;;;;;;10.52;9.45;;;26.40;99.90;;;;;;6164281;28;20571;-66
2022/08/17 10:39:02;;;;;;;40.72;11.73;;;26.30;99.90;;;;;;6164557;28;20303;-67
2022/08/17 10:42:21;;;;;;;11.10;9.98;;;26.30;99.90;;;;;;6164241;28;20462;-66
2022/08/17 10:45:51;;;;;;;16.40;11.50;;;26.30;99.90;;;;;;6164179;28;20303;-66
2022/08/17 10:49:28;;;;;;;10.63;9.57;;;26.30;99.90;;;;;;6164349;28;20303;-66
2022/08/17 10:52:48;;;;;;;11.30;9.77;;;26.30;99.90;;;;;;6164566;28;20294;-65
2022/08/17 10:56:41;;;;;;;10.65;9.45;;;26.40;99.90;;;;;;6163798;28;20278;-65
2022/08/17 10:59:51;;;;;;;10.88;9.20;;;26.30;99.80;;;;;;6162607;28;20479;-66
2022/08/17 11:02:59;;;;;;;11.35;9.38;;;26.50;99.60;;;;;;6164112;28;20554;-66
2022/08/17 11:06:16;;;;;;;9.60;8.70;;;26.40;98.80;;;;;;6163084;29;20367;-66
2022/08/17 11:09:32;;;;;;;9.95;9.10;;;26.50;98.20;;;;;;6163826;28;20306;-66
2022/08/17 11:12:43;;;;;;;9.40;8.70;;;26.60;98.20;;;;;;6183736;28;20286;-66
2022/08/17 11:15:59;;;;;;;9.55;8.60;;;26.60;97.80;;;;;;6187537;28;20449;-65
2022/08/17 11:20:04;;;;;;;11.82;8.80;;;26.70;97.90;;;;;;6187953;28;20617;-66
2022/08/17 11:23:53;;;;;;;9.27;8.43;;;26.60;97.00;;;;;;6184027;28;20588;-66
2022/08/17 11:27:07;;;;;;;9.38;8.48;;;26.70;97.10;;;;;;6183814;28;20565;-66
2022/08/17 11:30:43;;;;;;;9.90;8.98;;;26.70;97.40;;;;;;6187511;28;20302;-66
2022/08/17 11:33:58;;;;;;;9.73;8.80;;;26.90;98.00;;;;;;6187467;28;20294;-65
2022/08/17 11:37:46;;;;;;;9.95;8.93;;;27.00;97.80;;;;;;6188040;28;20274;-66
2022/08/17 11:41:10;;;;;;;9.20;8.32;;;27.10;97.90;;;;;;6185667;28;20282;-65
2022/08/17 11:44:30;;;;;;;10.40;8.98;;;27.10;96.70;;;;;;6187128;28;20483;-66
2022/08/17 11:54:49;;;;;;;19.88;8.38;;;27.30;96.40;;;;;;6187144;28;20298;-66
2022/08/17 11:58:00;;;;;;;11.07;7.95;;;27.30;97.20;;;;;;6187183;28;20270;-66
2022/08/17 12:01:08;;;;;;;9.15;7.93;;;27.30;95.70;;;;;;6187361;28;20310;-66
2022/08/17 12:04:26;;;;;;;28.80;9.30;;;27.30;95.60;;;;;;6186584;28;20293;-66
2022/08/17 12:07:33;;;;;;;8.70;8.13;;;27.50;96.00;;;;;;6186999;28;20269;-66
2022/08/17 12:10:56;;;;;;;9.23;8.63;;;27.50;95.40;;;;;;6183297;28;20538;-66
2022/08/17 12:14:02;;;;;;;11.73;8.52;;;27.50;95.10;;;;;;6163127;28;20590;-66
2022/08/17 12:17:10;;;;;;;16.45;8.75;;;27.50;95.40;;;;;;6163417;29;20465;-66
2022/08/17 12:20:22;;;;;;;9.25;8.63;;;27.50;94.90;;;;;;6163074;28;20298;-65
2022/08/17 12:23:39;;;;;;;10.95;8.02;;;27.60;95.60;;;;;;6162811;28;20298;-67
2022/08/17 12:26:56;;;;;;;16.20;7.93;;;27.60;94.70;;;;;;6163318;28;20277;-66
2022/08/17 12:30:05;;;;;;;8.93;8.20;;;27.60;94.50;;;;;;6162925;28;20302;-66
2022/08/17 12:33:14;;;;;;;8.65;7.95;;;27.60;95.60;;;;;;6162806;28;20306;-66
2022/08/17 12:36:33;;;;;;;8.68;7.93;;;27.60;95.50;;;;;;6163434;29;20280;-66
2022/08/17 12:39:39;;;;;;;9.13;7.68;;;27.70;94.50;;;;;;6162742;28;20302;-66
2022/08/17 12:42:56;;;;;;;14.57;7.97;;;27.70;94.30;;;;;;6162658;28;20514;-67
2022/08/17 12:46:01;;;;;;;8.30;7.63;;;27.80;94.10;;;;;;6162794;29;20428;-66
2022/08/17 12:49:33;;;;;;;13.75;7.70;;;27.90;94.40;;;;;;6162743;28;20298;-65
2022/08/17 12:52:41;;;;;;;8.43;7.68;;;28.00;93.60;;;;;;6163099;29;20294;-65
2022/08/17 12:55:46;;;;;;;13.70;8.23;;;28.00;93.90;;;;;;6160694;29;20282;-66
2022/08/17 12:58:54;;;;;;;12.10;8.10;;;28.00;93.30;;;;;;6164781;28;20294;-67
2022/08/17 13:02:01;;;;;;;13.18;7.90;;;28.10;93.20;;;;;;6167557;29;20302;-66
2022/08/17 13:05:13;;;;;;;9.60;8.63;;;28.10;94.30;;;;;;6167170;28;20476;-66
2022/08/17 13:08:34;;;;;;;10.43;8.90;;;28.00;94.90;;;;;;6166952;28;20565;-66
2022/08/17 13:11:48;;;;;;;16.10;10.05;;;28.00;95.00;;;;;;6178311;28;20291;-67
2022/08/17 13:14:56;;;;;;;10.52;9.43;;;27.80;95.70;;;;;;6190681;28;20297;-66
2022/08/17 13:18:07;;;;;;;10.60;9.35;;;27.80;95.80;;;;;;6190162;28;20270;-67
2022/08/17 13:21:25;;;;;;;11.70;10.60;;;27.80;96.10;;;;;;6190678;28;20270;-67
2022/08/17 13:24:33;;;;;;;11.02;9.95;;;27.70;96.50;;;;;;6190615;28;20302;-67
2022/08/17 13:27:43;;;;;;;16.20;9.18;;;27.60;96.90;;;;;;6190838;28;20290;-66
2022/08/17 13:30:49;;;;;;;11.23;9.63;;;27.60;96.70;;;;;;6189965;28;20277;-67
2022/08/17 13:34:17;;;;;;;12.90;10.13;;;27.50;97.10;;;;;;6190133;28;20305;-67
2022/08/17 13:37:31;;;;;;;12.15;9.32;;;27.60;97.20;;;;;;6190050;28;20273;-67
2022/08/17 13:40:42;;;;;;;12.88;10.07;;;27.50;97.20;;;;;;6189808;28;20302;-66
2022/08/17 13:43:48;;;;;;;12.30;9.85;;;27.60;97.30;;;;;;6189200;28;20305;-66
2022/08/17 13:46:55;;;;;;;10.77;9.68;;;27.70;97.20;;;;;;6190261;28;20269;-67
2022/08/17 13:50:01;;;;;;;13.80;9.60;;;27.80;96.50;;;;;;6189926;28;20298;-67
2022/08/17 13:53:21;;;;;;;9.35;8.50;;;27.90;95.80;;;;;;6189763;28;20318;-67
2022/08/17 13:56:36;;;;;;;10.20;8.00;;;27.90;95.30;;;;;;6190316;28;20274;-66
2022/08/17 13:59:46;;;;;;;16.60;9.05;;;27.80;95.90;;;;;;6189181;28;20324;-66
2022/08/17 14:03:04;;;;;;;8.82;8.02;;;27.80;95.30;;;;;;6189053;28;20273;-66
2022/08/17 14:06:09;;;;;;;13.35;8.73;;;27.70;95.60;;;;;;6189869;28;20270;-66
2022/08/17 14:09:15;;;;;;;15.07;7.65;;;27.80;95.10;;;;;;6189008;28;20297;-66
2022/08/17 14:12:28;;;;;;;8.07;7.05;;;27.90;94.70;;;;;;6171469;28;20294;-66
2022/08/17 14:15:34;;;;;;;8.20;7.32;;;27.90;93.80;;;;;;6164903;28;20295;-66
2022/08/17 14:19:01;;;;;;;8.32;7.45;;;27.90;93.80;;;;;;6165348;28;20582;-66
2022/08/17 14:22:19;;;;;;;9.85;7.80;;;27.90;93.50;;;;;;6165382;29;20274;-66
2022/08/17 14:25:28;;;;;;;11.32;7.90;;;27.90;94.10;;;;;;6165301;28;20302;-66
2022/08/17 14:28:33;;;;;;;17.48;8.65;;;27.90;93.90;;;;;;6164637;28;20298;-66
2022/08/17 14:31:41;;;;;;;7.97;7.38;;;27.90;93.30;;;;;;6164724;29;20461;-66
2022/08/17 14:34:55;;;;;;;10.98;8.00;;;27.90;93.20;;;;;;6164518;28;20350;-66
2022/08/17 14:38:01;;;;;;;9.25;8.32;;;27.90;93.60;;;;;;6164626;28;20283;-66
2022/08/17 14:41:07;;;;;;;13.25;8.93;;;27.90;94.30;;;;;;6164812;29;20275;-66
2022/08/17 14:44:12;;;;;;;9.98;8.13;;;27.80;94.30;;;;;;6164371;28;20300;-66
2022/08/17 14:47:17;;;;;;;14.88;8.95;;;27.80;94.70;;;;;;6164683;29;20279;-66
2022/08/17 14:50:24;;;;;;;10.05;8.77;;;27.80;94.90;;;;;;6164173;28;20294;-66
2022/08/17 14:53:31;;;;;;;10.38;8.73;;;27.80;94.60;;;;;;6164358;28;20543;-65
2022/08/17 14:56:37;;;;;;;10.85;8.45;;;27.70;94.90;;;;;;6164226;29;20274;-65
2022/08/17 14:59:42;;;;;;;9.40;8.45;;;27.70;94.80;;;;;;6163981;28;20298;-66
2022/08/17 15:02:52;;;;;;;27.08;16.88;;;27.60;94.70;;;;;;6163969;28;20279;-65
2022/08/17 15:05:59;;;;;;;19.23;12.88;;;27.60;94.80;;;;;;6164128;28;20499;-66
2022/08/17 15:09:04;;;;;;;15.20;12.38;;;27.50;95.00;;;;;;6163798;28;20302;-65
2022/08/17 15:12:22;;;;;;;12.88;10.25;;;27.60;95.10;;;;;;6180111;28;20274;-66
2022/08/17 15:15:34;;;;;;;18.92;13.18;;;27.50;95.30;;;;;;6187724;28;20305;-67
2022/08/17 15:18:40;;;;;;;13.52;8.93;;;27.50;95.50;;;;;;6188056;28;20549;-67
2022/08/17 15:21:46;;;;;;;9.10;8.55;;;27.40;95.30;;;;;;6187242;28;20273;-66
2022/08/17 15:24:51;;;;;;;9.25;8.38;;;27.40;95.40;;;;;;6187685;28;20602;-66
2022/08/17 15:27:57;;;;;;;11.48;8.57;;;27.30;95.40;;;;;;6187195;28;20569;-67
2022/08/17 15:31:04;;;;;;;9.35;8.52;;;27.30;95.10;;;;;;6187742;28;20269;-67
2022/08/17 15:34:12;;;;;;;7.88;7.28;;;27.30;95.10;;;;;;6186953;28;20493;-67
2022/08/17 15:37:18;;;;;;;7.32;6.85;;;27.20;93.50;;;;;;6187638;28;20549;-68
2022/08/17 15:40:23;;;;;;;7.13;6.47;;;27.20;93.10;;;;;;6187198;28;20600;-66
2022/08/17 15:43:32;;;;;;;6.95;6.43;;;27.20;92.60;;;;;;6187446;28;20285;-67
2022/08/17 15:46:38;;;;;;;7.45;6.18;;;27.20;93.00;;;;;;6187302;28;20469;-66
2022/08/17 15:49:45;;;;;;;9.20;6.15;;;27.20;92.10;;;;;;6187573;28;20298;-66
2022/08/17 15:52:58;;;;;;;6.85;6.30;;;27.20;92.00;;;;;;6187240;28;20278;-67
2022/08/17 15:56:04;;;;;;;9.23;7.15;;;27.20;92.10;;;;;;6187630;28;20294;-66
2022/08/17 15:59:10;;;;;;;8.80;7.13;;;27.20;92.20;;;;;;6186977;28;20293;-66
2022/08/17 16:02:19;;;;;;;9.27;7.35;;;27.20;92.80;;;;;;6186912;28;20306;-67
2022/08/17 16:05:44;;;;;;;7.38;6.60;;;27.30;93.10;;;;;;6186683;28;20297;-66
2022/08/17 16:08:53;;;;;;;9.23;7.30;;;27.20;92.90;;;;;;6186969;28;20293;-66
2022/08/17 16:11:58;;;;;;;7.38;6.80;;;27.20;92.80;;;;;;6172360;28;20274;-67
2022/08/17 16:15:07;;;;;;;7.65;6.97;;;27.10;92.60;;;;;;6162666;28;20302;-67
2022/08/17 16:18:12;;;;;;;7.30;6.65;;;27.10;93.60;;;;;;6163049;28;20295;-66
2022/08/17 16:21:29;;;;;;;7.00;6.40;;;27.10;93.80;;;;;;6163572;29;20274;-66
2022/08/17 16:24:48;;;;;;;10.02;7.00;;;27.00;93.30;;;;;;6162642;28;20306;-66
2022/08/17 16:28:01;;;;;;;7.65;7.00;;;27.00;93.40;;;;;;6162490;28;20275;-66
2022/08/17 16:31:06;;;;;;;9.82;7.18;;;27.00;93.70;;;;;;6162752;29;20275;-65
2022/08/17 16:34:13;;;;;;;11.75;8.73;;;26.90;94.10;;;;;;6166387;28;20298;-66
2022/08/17 16:37:22;;;;;;;17.70;9.07;;;26.70;93.70;;;;;;6167481;29;20275;-66
2022/08/17 16:40:31;;;;;;;12.32;8.82;;;26.70;94.00;;;;;;6166893;28;20593;-66
2022/08/17 16:43:40;;;;;;;13.25;8.68;;;26.70;94.20;;;;;;6165604;28;20471;-66
2022/08/17 16:46:47;;;;;;;9.18;8.27;;;26.70;94.80;;;;;;6167461;29;20294;-66
2022/08/17 16:49:53;;;;;;;14.95;8.77;;;26.60;94.00;;;;;;6166766;28;20302;-66
2022/08/17 16:53:06;;;;;;;14.85;8.00;;;26.60;95.00;;;;;;6166516;28;20270;-67
2022/08/17 16:56:17;;;;;;;12.75;8.68;;;26.50;94.90;;;;;;6165816;28;20298;-66